sensor_id;sensor_type;location;lat;lon;timestamp;temperature;humidity
42145;DHT22;27813;43.516;11.890;2022-12-07T00:00:52;9.30;97.40
42145;DHT22;27813;43.516;11.890;2022-12-07T00:04:57;9.40;97.60
42145;DHT22;27813;43.516;11.890;2022-12-07T00:09:01;9.40;97.60
42145;DHT22;27813;43.516;11.890;2022-12-07T00:13:05;9.30;97.40
42145;DHT22;27813;43.516;11.890;2022-12-07T00:17:09;9.20;97.20
42145;DHT22;27813;43.516;11.890;2022-12-07T00:21:22;9.10;97.20
42145;DHT22;27813;43.516;11.890;2022-12-07T00:25:26;9.00;97.20
42145;DHT22;27813;43.516;11.890;2022-12-07T00:29:30;9.00;97.40
42145;DHT22;27813;43.516;11.890;2022-12-07T05:32:35;9.70;98.00
42145;DHT22;27813;43.516;11.890;2022-12-07T05:36:40;9.80;98.00
42145;DHT22;27813;43.516;11.890;2022-12-07T05:40:44;9.80;98.00
42145;DHT22;27813;43.516;11.890;2022-12-07T05:44:49;9.80;98.00
42145;DHT22;27813;43.516;11.890;2022-12-07T05:48:53;9.70;98.00
42145;DHT22;27813;43.516;11.890;2022-12-07T05:52:57;9.60;97.80
42145;DHT22;27813;43.516;11.890;2022-12-07T05:57:02;9.40;97.60
42145;DHT22;27813;43.516;11.890;2022-12-07T06:01:06;9.40;97.60
42145;DHT22;27813;43.516;11.890;2022-12-07T06:05:10;9.30;97.60
42145;DHT22;27813;43.516;11.890;2022-12-07T06:09:15;9.20;97.50
42145;DHT22;27813;43.516;11.890;2022-12-07T06:13:20;9.20;97.60
42145;DHT22;27813;43.516;11.890;2022-12-07T06:17:24;9.20;97.80
42145;DHT22;27813;43.516;11.890;2022-12-07T06:21:29;9.40;97.90
42145;DHT22;27813;43.516;11.890;2022-12-07T06:25:33;9.50;98.00
42145;DHT22;27813;43.516;11.890;2022-12-07T06:29:37;9.50;98.10
42145;DHT22;27813;43.516;11.890;2022-12-07T06:33:47;9.50;98.10
42145;DHT22;27813;43.516;11.890;2022-12-07T06:37:53;9.60;98.00
42145;DHT22;27813;43.516;11.890;2022-12-07T06:41:58;9.60;98.00
42145;DHT22;27813;43.516;11.890;2022-12-07T06:46:04;9.50;97.90
42145;DHT22;27813;43.516;11.890;2022-12-07T06:50:09;9.50;97.90
42145;DHT22;27813;43.516;11.890;2022-12-07T06:54:17;9.50;97.90
42145;DHT22;27813;43.516;11.890;2022-12-07T06:58:21;9.60;98.00
42145;DHT22;27813;43.516;11.890;2022-12-07T07:02:25;9.70;98.10
42145;DHT22;27813;43.516;11.890;2022-12-07T07:06:30;9.80;98.10
42145;DHT22;27813;43.516;11.890;2022-12-07T07:10:34;9.80;98.10
42145;DHT22;27813;43.516;11.890;2022-12-07T07:14:38;9.90;98.10
42145;DHT22;27813;43.516;11.890;2022-12-07T07:18:42;9.90;98.10
42145;DHT22;27813;43.516;11.890;2022-12-07T07:22:47;9.90;98.10
42145;DHT22;27813;43.516;11.890;2022-12-07T07:26:50;10.00;98.10
42145;DHT22;27813;43.516;11.890;2022-12-07T07:30:55;10.00;98.10
42145;DHT22;27813;43.516;11.890;2022-12-07T07:34:59;10.10;98.20
42145;DHT22;27813;43.516;11.890;2022-12-07T07:39:03;10.10;98.20
42145;DHT22;27813;43.516;11.890;2022-12-07T07:43:08;10.20;98.10
42145;DHT22;27813;43.516;11.890;2022-12-07T07:47:12;10.20;98.10
42145;DHT22;27813;43.516;11.890;2022-12-07T07:51:17;10.30;98.10
42145;DHT22;27813;43.516;11.890;2022-12-07T07:55:22;10.40;98.20
42145;DHT22;27813;43.516;11.890;2022-12-07T07:59:26;10.50;98.20
42145;DHT22;27813;43.516;11.890;2022-12-07T08:03:30;10.50;98.20
42145;DHT22;27813;43.516;11.890;2022-12-07T08:07:34;10.60;98.20
42145;DHT22;27813;43.516;11.890;2022-12-07T08:11:38;10.70;98.30
42145;DHT22;27813;43.516;11.890;2022-12-07T08:15:46;10.70;98.20
42145;DHT22;27813;43.516;11.890;2022-12-07T08:19:50;10.70;98.10
42145;DHT22;27813;43.516;11.890;2022-12-07T08:23:55;10.70;98.20
42145;DHT22;27813;43.516;11.890;2022-12-07T08:28:00;10.80;98.30
42145;DHT22;27813;43.516;11.890;2022-12-07T08:32:05;11.00;98.40
42145;DHT22;27813;43.516;11.890;2022-12-07T08:36:14;11.00;98.30
42145;DHT22;27813;43.516;11.890;2022-12-07T08:40:20;11.20;98.30
42145;DHT22;27813;43.516;11.890;2022-12-07T08:44:25;11.30;98.40
42145;DHT22;27813;43.516;11.890;2022-12-07T08:48:29;11.40;98.40
42145;DHT22;27813;43.516;11.890;2022-12-07T08:52:35;11.50;98.40
42145;DHT22;27813;43.516;11.890;2022-12-07T08:56:39;11.60;98.40
42145;DHT22;27813;43.516;11.890;2022-12-07T09:00:44;11.80;98.50
42145;DHT22;27813;43.516;11.890;2022-12-07T09:04:48;12.20;98.70
42145;DHT22;27813;43.516;11.890;2022-12-07T09:08:55;12.40;98.60
42145;DHT22;27813;43.516;11.890;2022-12-07T09:13:01;12.60;98.60
42145;DHT22;27813;43.516;11.890;2022-12-07T09:30:36;13.50;98.90
42145;DHT22;27813;43.516;11.890;2022-12-07T09:35:01;14.70;98.10
42145;DHT22;27813;43.516;11.890;2022-12-07T09:39:07;14.80;97.70
42145;DHT22;27813;43.516;11.890;2022-12-07T09:43:21;14.90;97.50
42145;DHT22;27813;43.516;11.890;2022-12-07T09:47:26;14.90;97.20
42145;DHT22;27813;43.516;11.890;2022-12-07T09:51:31;14.90;96.90
42145;DHT22;27813;43.516;11.890;2022-12-07T09:55:36;14.80;96.60
42145;DHT22;27813;43.516;11.890;2022-12-07T09:59:41;14.60;96.40
42145;DHT22;27813;43.516;11.890;2022-12-07T10:03:55;14.60;96.40
42145;DHT22;27813;43.516;11.890;2022-12-07T10:08:03;14.50;96.50
42145;DHT22;27813;43.516;11.890;2022-12-07T10:12:10;14.60;96.90
42145;DHT22;27813;43.516;11.890;2022-12-07T10:20:29;14.90;96.40
42145;DHT22;27813;43.516;11.890;2022-12-07T10:24:34;14.70;96.20
42145;DHT22;27813;43.516;11.890;2022-12-07T10:28:38;14.50;96.20
42145;DHT22;27813;43.516;11.890;2022-12-07T10:32:45;14.40;96.50
42145;DHT22;27813;43.516;11.890;2022-12-07T10:36:49;14.50;96.70
42145;DHT22;27813;43.516;11.890;2022-12-07T10:41:05;14.70;96.60
42145;DHT22;27813;43.516;11.890;2022-12-07T10:45:17;14.70;96.40
42145;DHT22;27813;43.516;11.890;2022-12-07T10:54:28;14.90;96.70
42145;DHT22;27813;43.516;11.890;2022-12-07T11:08:37;15.40;96.30
42145;DHT22;27813;43.516;11.890;2022-12-07T11:13:04;15.50;96.40
42145;DHT22;27813;43.516;11.890;2022-12-07T11:17:43;15.50;96.10
42145;DHT22;27813;43.516;11.890;2022-12-07T11:21:57;15.20;96.00
42145;DHT22;27813;43.516;11.890;2022-12-07T11:38:48;15.40;96.60
42145;DHT22;27813;43.516;11.890;2022-12-07T11:47:45;15.30;96.30
42145;DHT22;27813;43.516;11.890;2022-12-07T11:51:53;15.40;96.60
42145;DHT22;27813;43.516;11.890;2022-12-07T11:56:01;15.50;96.20
42145;DHT22;27813;43.516;11.890;2022-12-07T12:00:14;15.30;96.10
42145;DHT22;27813;43.516;11.890;2022-12-07T12:22:43;14.70;96.50
42145;DHT22;27813;43.516;11.890;2022-12-07T12:26:56;14.80;96.80
42145;DHT22;27813;43.516;11.890;2022-12-07T12:31:11;14.80;96.90
42145;DHT22;27813;43.516;11.890;2022-12-07T12:35:37;14.90;97.10
42145;DHT22;27813;43.516;11.890;2022-12-07T12:40:37;15.20;97.30
42145;DHT22;27813;43.516;11.890;2022-12-07T12:48:41;15.70;96.50
42145;DHT22;27813;43.516;11.890;2022-12-07T13:05:38;15.50;96.30
42145;DHT22;27813;43.516;11.890;2022-12-07T13:09:44;15.40;96.10
42145;DHT22;27813;43.516;11.890;2022-12-07T13:13:49;15.10;95.90
42145;DHT22;27813;43.516;11.890;2022-12-07T13:17:58;14.80;96.10
42145;DHT22;27813;43.516;11.890;2022-12-07T13:26:41;14.90;97.20
42145;DHT22;27813;43.516;11.890;2022-12-07T13:35:35;14.90;96.90
42145;DHT22;27813;43.516;11.890;2022-12-07T13:39:50;15.00;96.90
42145;DHT22;27813;43.516;11.890;2022-12-07T13:44:25;14.90;96.40
42145;DHT22;27813;43.516;11.890;2022-12-07T13:48:42;14.70;96.40
42145;DHT22;27813;43.516;11.890;2022-12-07T13:52:47;14.50;96.40
42145;DHT22;27813;43.516;11.890;2022-12-07T13:56:53;14.40;96.30
42145;DHT22;27813;43.516;11.890;2022-12-07T14:00:59;14.10;96.30
42145;DHT22;27813;43.516;11.890;2022-12-07T14:09:19;14.20;97.50
42145;DHT22;27813;43.516;11.890;2022-12-07T14:13:39;14.50;97.80
42145;DHT22;27813;43.516;11.890;2022-12-07T14:17:53;14.60;97.60
42145;DHT22;27813;43.516;11.890;2022-12-07T14:22:34;14.50;96.90
42145;DHT22;27813;43.516;11.890;2022-12-07T14:26:39;14.20;96.10
42145;DHT22;27813;43.516;11.890;2022-12-07T14:30:44;13.70;95.40
42145;DHT22;27813;43.516;11.890;2022-12-07T14:35:16;13.30;95.10
42145;DHT22;27813;43.516;11.890;2022-12-07T14:39:20;13.10;96.10
42145;DHT22;27813;43.516;11.890;2022-12-07T14:43:27;13.20;96.90
42145;DHT22;27813;43.516;11.890;2022-12-07T14:47:33;13.30;97.20
42145;DHT22;27813;43.516;11.890;2022-12-07T14:51:58;13.30;97.30
42145;DHT22;27813;43.516;11.890;2022-12-07T14:56:25;13.30;97.30
42145;DHT22;27813;43.516;11.890;2022-12-07T15:00:33;13.30;97.40
42145;DHT22;27813;43.516;11.890;2022-12-07T15:04:39;13.30;97.50
42145;DHT22;27813;43.516;11.890;2022-12-07T15:08:45;13.20;97.40
42145;DHT22;27813;43.516;11.890;2022-12-07T15:12:50;13.20;97.40
42145;DHT22;27813;43.516;11.890;2022-12-07T15:16:54;13.00;97.20
42145;DHT22;27813;43.516;11.890;2022-12-07T15:21:19;12.90;97.20
42145;DHT22;27813;43.516;11.890;2022-12-07T15:25:24;12.90;97.30
42145;DHT22;27813;43.516;11.890;2022-12-07T15:29:28;12.80;97.20
42145;DHT22;27813;43.516;11.890;2022-12-07T15:33:35;12.80;97.30
42145;DHT22;27813;43.516;11.890;2022-12-07T15:37:40;12.60;97.20
42145;DHT22;27813;43.516;11.890;2022-12-07T15:41:44;12.60;97.20
42145;DHT22;27813;43.516;11.890;2022-12-07T15:45:51;12.50;97.20
42145;DHT22;27813;43.516;11.890;2022-12-07T15:50:02;12.40;97.10
42145;DHT22;27813;43.516;11.890;2022-12-07T15:54:19;12.20;97.00
42145;DHT22;27813;43.516;11.890;2022-12-07T15:58:28;12.20;97.00
42145;DHT22;27813;43.516;11.890;2022-12-07T16:02:39;12.00;97.10
42145;DHT22;27813;43.516;11.890;2022-12-07T16:06:46;12.00;97.10
42145;DHT22;27813;43.516;11.890;2022-12-07T16:10:50;12.00;97.10
42145;DHT22;27813;43.516;11.890;2022-12-07T16:14:54;11.90;97.10
42145;DHT22;27813;43.516;11.890;2022-12-07T16:18:59;11.80;97.00
42145;DHT22;27813;43.516;11.890;2022-12-07T16:23:03;11.70;96.90
42145;DHT22;27813;43.516;11.890;2022-12-07T16:27:07;11.50;96.60
42145;DHT22;27813;43.516;11.890;2022-12-07T16:31:14;11.50;96.60
42145;DHT22;27813;43.516;11.890;2022-12-07T16:35:19;11.40;96.40
42145;DHT22;27813;43.516;11.890;2022-12-07T16:39:23;11.10;95.90
42145;DHT22;27813;43.516;11.890;2022-12-07T16:43:31;10.90;95.90
42145;DHT22;27813;43.516;11.890;2022-12-07T16:47:40;10.90;96.10
42145;DHT22;27813;43.516;11.890;2022-12-07T16:51:44;10.70;95.90
42145;DHT22;27813;43.516;11.890;2022-12-07T16:55:50;10.60;95.60
42145;DHT22;27813;43.516;11.890;2022-12-07T16:59:54;10.40;95.70
42145;DHT22;27813;43.516;11.890;2022-12-07T17:04:02;10.30;95.50
42145;DHT22;27813;43.516;11.890;2022-12-07T17:08:09;10.10;95.20
42145;DHT22;27813;43.516;11.890;2022-12-07T17:12:14;9.90;95.20
42145;DHT22;27813;43.516;11.890;2022-12-07T17:16:18;9.80;95.50
42145;DHT22;27813;43.516;11.890;2022-12-07T17:20:23;9.80;95.80
42145;DHT22;27813;43.516;11.890;2022-12-07T17:24:27;9.80;95.80
42145;DHT22;27813;43.516;11.890;2022-12-07T17:28:32;9.70;95.70
42145;DHT22;27813;43.516;11.890;2022-12-07T17:32:37;9.60;95.70
42145;DHT22;27813;43.516;11.890;2022-12-07T17:36:41;9.60;95.90
42145;DHT22;27813;43.516;11.890;2022-12-07T17:40:46;9.60;96.20
42145;DHT22;27813;43.516;11.890;2022-12-07T17:44:50;9.60;96.30
42145;DHT22;27813;43.516;11.890;2022-12-07T17:48:54;9.60;96.30
42145;DHT22;27813;43.516;11.890;2022-12-07T17:52:59;9.50;96.20
42145;DHT22;27813;43.516;11.890;2022-12-07T17:57:15;9.60;96.50
42145;DHT22;27813;43.516;11.890;2022-12-07T18:01:19;9.60;96.80
42145;DHT22;27813;43.516;11.890;2022-12-07T18:05:26;9.70;97.00
42145;DHT22;27813;43.516;11.890;2022-12-07T18:09:30;9.80;97.00
42145;DHT22;27813;43.516;11.890;2022-12-07T18:13:35;9.70;96.70
42145;DHT22;27813;43.516;11.890;2022-12-07T18:17:39;9.50;96.50
42145;DHT22;27813;43.516;11.890;2022-12-07T18:21:46;9.40;96.30
42145;DHT22;27813;43.516;11.890;2022-12-07T18:25:51;9.20;95.80
42145;DHT22;27813;43.516;11.890;2022-12-07T18:29:56;9.00;95.30
42145;DHT22;27813;43.516;11.890;2022-12-07T18:34:04;8.80;95.00
42145;DHT22;27813;43.516;11.890;2022-12-07T18:38:17;8.60;94.40
42145;DHT22;27813;43.516;11.890;2022-12-07T18:42:22;8.40;94.10
42145;DHT22;27813;43.516;11.890;2022-12-07T18:46:26;8.20;94.00
42145;DHT22;27813;43.516;11.890;2022-12-07T18:50:31;8.00;94.00
42145;DHT22;27813;43.516;11.890;2022-12-07T18:54:37;7.90;94.20
42145;DHT22;27813;43.516;11.890;2022-12-07T18:58:44;7.90;94.70
42145;DHT22;27813;43.516;11.890;2022-12-07T19:03:10;7.80;94.40
42145;DHT22;27813;43.516;11.890;2022-12-07T19:07:14;7.60;94.00
42145;DHT22;27813;43.516;11.890;2022-12-07T19:11:31;7.40;93.80
42145;DHT22;27813;43.516;11.890;2022-12-07T19:15:54;7.30;93.90
42145;DHT22;27813;43.516;11.890;2022-12-07T19:20:02;7.20;94.30
42145;DHT22;27813;43.516;11.890;2022-12-07T19:24:07;7.20;94.50
42145;DHT22;27813;43.516;11.890;2022-12-07T19:28:11;7.20;94.70
42145;DHT22;27813;43.516;11.890;2022-12-07T19:32:16;7.10;94.80
42145;DHT22;27813;43.516;11.890;2022-12-07T19:36:21;7.10;94.70
42145;DHT22;27813;43.516;11.890;2022-12-07T19:40:28;7.00;94.90
42145;DHT22;27813;43.516;11.890;2022-12-07T19:44:32;7.00;95.00
42145;DHT22;27813;43.516;11.890;2022-12-07T19:48:37;7.00;95.10
42145;DHT22;27813;43.516;11.890;2022-12-07T19:52:42;6.90;94.90
42145;DHT22;27813;43.516;11.890;2022-12-07T19:56:47;6.90;94.70
42145;DHT22;27813;43.516;11.890;2022-12-07T20:00:52;6.80;95.00
42145;DHT22;27813;43.516;11.890;2022-12-07T20:05:01;6.80;94.90
42145;DHT22;27813;43.516;11.890;2022-12-07T20:09:11;6.70;94.90
42145;DHT22;27813;43.516;11.890;2022-12-07T20:13:17;6.60;94.80
42145;DHT22;27813;43.516;11.890;2022-12-07T20:17:34;6.60;94.80
42145;DHT22;27813;43.516;11.890;2022-12-07T20:21:42;6.60;94.80
42145;DHT22;27813;43.516;11.890;2022-12-07T20:25:52;6.50;94.70
42145;DHT22;27813;43.516;11.890;2022-12-07T20:30:04;6.50;94.80
42145;DHT22;27813;43.516;11.890;2022-12-07T20:34:12;6.40;94.80
42145;DHT22;27813;43.516;11.890;2022-12-07T20:38:21;6.40;94.80
42145;DHT22;27813;43.516;11.890;2022-12-07T20:42:31;6.40;94.80
42145;DHT22;27813;43.516;11.890;2022-12-07T20:46:48;6.40;94.90
42145;DHT22;27813;43.516;11.890;2022-12-07T20:51:04;6.30;94.80
42145;DHT22;27813;43.516;11.890;2022-12-07T20:55:15;6.10;94.30
42145;DHT22;27813;43.516;11.890;2022-12-07T20:59:26;5.90;93.90
42145;DHT22;27813;43.516;11.890;2022-12-07T21:03:57;5.80;94.10
42145;DHT22;27813;43.516;11.890;2022-12-07T21:08:12;5.70;94.40
42145;DHT22;27813;43.516;11.890;2022-12-07T21:12:22;5.80;95.20
42145;DHT22;27813;43.516;11.890;2022-12-07T21:16:32;5.90;95.40
42145;DHT22;27813;43.516;11.890;2022-12-07T21:20:45;5.90;95.40
42145;DHT22;27813;43.516;11.890;2022-12-07T21:24:54;5.90;95.40
42145;DHT22;27813;43.516;11.890;2022-12-07T21:29:06;6.00;95.70
42145;DHT22;27813;43.516;11.890;2022-12-07T21:33:18;6.10;95.90
42145;DHT22;27813;43.516;11.890;2022-12-07T21:37:43;6.20;95.80
42145;DHT22;27813;43.516;11.890;2022-12-07T21:41:56;6.20;95.80
42145;DHT22;27813;43.516;11.890;2022-12-07T21:46:04;6.20;95.80
42145;DHT22;27813;43.516;11.890;2022-12-07T21:50:24;6.20;95.90
42145;DHT22;27813;43.516;11.890;2022-12-07T21:54:43;6.20;96.00
42145;DHT22;27813;43.516;11.890;2022-12-07T21:59:14;6.20;95.90
42145;DHT22;27813;43.516;11.890;2022-12-07T22:03:21;6.10;95.70
42145;DHT22;27813;43.516;11.890;2022-12-07T22:07:27;6.10;95.40
42145;DHT22;27813;43.516;11.890;2022-12-07T22:11:40;6.10;95.70
42145;DHT22;27813;43.516;11.890;2022-12-07T22:15:46;6.20;96.10
42145;DHT22;27813;43.516;11.890;2022-12-07T22:19:51;6.20;96.10
42145;DHT22;27813;43.516;11.890;2022-12-07T22:23:56;6.20;96.20
42145;DHT22;27813;43.516;11.890;2022-12-07T22:28:00;6.20;96.20
42145;DHT22;27813;43.516;11.890;2022-12-07T22:32:05;6.00;95.90
42145;DHT22;27813;43.516;11.890;2022-12-07T22:36:29;6.00;96.10
42145;DHT22;27813;43.516;11.890;2022-12-07T22:40:37;6.00;96.10
42145;DHT22;27813;43.516;11.890;2022-12-07T22:44:41;5.90;95.90
42145;DHT22;27813;43.516;11.890;2022-12-07T22:48:46;5.90;95.40
42145;DHT22;27813;43.516;11.890;2022-12-07T22:52:52;5.80;95.50
42145;DHT22;27813;43.516;11.890;2022-12-07T22:56:57;5.80;95.50
42145;DHT22;27813;43.516;11.890;2022-12-07T23:01:06;5.60;95.30
42145;DHT22;27813;43.516;11.890;2022-12-07T23:05:11;5.50;95.50
42145;DHT22;27813;43.516;11.890;2022-12-07T23:09:20;5.60;95.60
42145;DHT22;27813;43.516;11.890;2022-12-07T23:13:24;5.60;95.30
42145;DHT22;27813;43.516;11.890;2022-12-07T23:17:41;5.50;94.80
42145;DHT22;27813;43.516;11.890;2022-12-07T23:21:45;5.40;94.70
42145;DHT22;27813;43.516;11.890;2022-12-07T23:25:50;5.40;94.90
42145;DHT22;27813;43.516;11.890;2022-12-07T23:29:54;5.40;95.30
42145;DHT22;27813;43.516;11.890;2022-12-07T23:33:58;5.40;95.50
42145;DHT22;27813;43.516;11.890;2022-12-07T23:38:02;5.40;95.60
42145;DHT22;27813;43.516;11.890;2022-12-07T23:42:07;5.40;95.60
42145;DHT22;27813;43.516;11.890;2022-12-07T23:46:13;5.40;95.30
42145;DHT22;27813;43.516;11.890;2022-12-07T23:50:21;5.40;95.30
42145;DHT22;27813;43.516;11.890;2022-12-07T23:54:28;5.30;95.20
42145;DHT22;27813;43.516;11.890;2022-12-07T23:58:32;5.30;95.20
